Time;durP1;ratioP1;P1;durP2;ratioP2;P2;SDS_P1;SDS_P2;PMS_P1;PMS_P2;Temp;Humidity;BMP_temperature;BMP_pressure;BME280_temperature;BME280_humidity;BME280_pressure;Samples;Min_cycle;Max_cycle;Signal;HPM_P1;HPM_P2
2023/05/08 00:00:47;;;;;;;3.35;2.00;;;;;;;;;;6239865;28;20295;-73
2023/05/08 00:03:53;;;;;;;2.35;2.25;;;;;;;;;;6239322;28;20297;-74
2023/05/08 00:07:01;;;;;;;5.35;2.20;;;;;;;;;;6240184;28;20292;-74
2023/05/08 00:10:07;;;;;;;2.40;2.30;;;;;;;;;;6238732;28;20292;-74
2023/05/08 00:13:13;;;;;;;4.53;1.80;;;;;;;;;;6239524;28;20360;-74
2023/05/08 00:16:18;;;;;;;2.72;2.55;;;;;;;;;;6239663;28;20424;-74
2023/05/08 00:19:24;;;;;;;2.83;1.97;;;;;;;;;;6238475;28;20321;-72
2023/05/08 00:22:31;;;;;;;2.15;2.05;;;;;;;;;;6237815;28;20284;-75
2023/05/08 00:25:36;;;;;;;3.90;2.20;;;;;;;;;;6238984;28;20281;-74
2023/05/08 00:28:41;;;;;;;7.20;2.20;;;;;;;;;;6238390;28;20300;-74
2023/05/08 00:31:46;;;;;;;2.60;2.00;;;;;;;;;;6238067;28;20292;-74
2023/05/08 00:34:51;;;;;;;2.17;2.08;;;;;;;;;;6238503;28;20552;-75
2023/05/08 00:37:57;;;;;;;3.72;1.92;;;;;;;;;;6238256;28;20304;-75
2023/05/08 00:41:03;;;;;;;2.72;1.95;;;;;;;;;;6221550;28;20296;-73
2023/05/08 00:44:09;;;;;;;2.05;2.00;;;;;;;;;;6221153;28;20292;-74
2023/05/08 00:47:14;;;;;;;2.10;2.00;;;;;;;;;;6239876;28;20305;-73
2023/05/08 00:50:20;;;;;;;4.10;2.00;;;;;;;;;;6238463;28;20595;-74
2023/05/08 00:53:27;;;;;;;5.65;1.95;;;;;;;;;;6220409;28;20293;-75
2023/05/08 00:56:33;;;;;;;2.00;1.95;;;;;;;;;;6239106;28;20577;-74
2023/05/08 00:59:40;;;;;;;2.20;2.10;;;;;;;;;;6237751;28;20319;-75
2023/05/08 01:02:45;;;;;;;4.65;1.75;;;;;;;;;;6228865;28;20292;-74
2023/05/08 01:05:50;;;;;;;2.20;2.15;;;;;;;;;;6225603;28;20491;-74
2023/05/08 01:08:57;;;;;;;2.25;2.15;;;;;;;;;;6237500;28;20291;-74
2023/05/08 01:12:10;;;;;;;2.40;1.90;;;;;;;;;;6220627;28;20284;-73
2023/05/08 01:15:18;;;;;;;2.30;2.10;;;;;;;;;;6237655;28;20311;-74
2023/05/08 01:18:28;;;;;;;3.15;1.88;;;;;;;;;;6220657;28;20300;-74
2023/05/08 01:21:39;;;;;;;1.73;1.73;;;;;;;;;;6238208;28;20476;-74
2023/05/08 01:25:04;;;;;;;2.00;1.90;;;;;;;;;;6237466;28;20293;-74
2023/05/08 01:28:30;;;;;;;2.47;1.75;;;;;;;;;;6237148;28;20289;-74
2023/05/08 01:31:47;;;;;;;4.10;2.10;;;;;;;;;;6196692;28;20274;-73
2023/05/08 01:35:03;;;;;;;1.70;1.70;;;;;;;;;;6237498;28;20280;-73
2023/05/08 01:38:15;;;;;;;3.47;1.90;;;;;;;;;;6236773;28;20304;-73
2023/05/08 01:41:27;;;;;;;3.65;3.35;;;;;;;;;;6237696;28;20471;-75
2023/05/08 01:44:36;;;;;;;4.05;2.25;;;;;;;;;;6237248;28;20288;-73
2023/05/08 01:47:42;;;;;;;3.05;2.05;;;;;;;;;;6237263;28;20316;-74
2023/05/08 01:50:53;;;;;;;8.77;2.35;;;;;;;;;;6237926;28;20297;-73
2023/05/08 01:54:01;;;;;;;2.37;2.27;;;;;;;;;;6227469;28;20384;-74
2023/05/08 01:57:08;;;;;;;4.32;2.10;;;;;;;;;;6228231;28;20493;-74
2023/05/08 02:00:16;;;;;;;3.77;2.30;;;;;;;;;;6227126;28;20297;-73
2023/05/08 02:03:22;;;;;;;2.17;2.08;;;;;;;;;;6211702;28;20293;-73
2023/05/08 02:06:30;;;;;;;2.72;2.58;;;;;;;;;;6227787;28;20612;-74
2023/05/08 02:09:36;;;;;;;2.20;2.10;;;;;;;;;;6228182;28;20474;-74
2023/05/08 02:12:41;;;;;;;2.30;2.20;;;;;;;;;;6236247;28;20296;-75
2023/05/08 02:15:48;;;;;;;3.10;2.07;;;;;;;;;;6227841;28;20301;-74
2023/05/08 02:18:55;;;;;;;2.77;1.97;;;;;;;;;;6220056;28;20321;-74
2023/05/08 02:22:02;;;;;;;2.77;2.03;;;;;;;;;;6216277;28;20304;-72
2023/05/08 02:25:08;;;;;;;2.47;1.80;;;;;;;;;;6236335;28;20304;-74
2023/05/08 02:28:15;;;;;;;4.00;2.23;;;;;;;;;;6218949;28;20293;-74
2023/05/08 02:31:22;;;;;;;2.57;2.00;;;;;;;;;;6251689;28;20299;-73
2023/05/08 02:34:27;;;;;;;2.88;2.28;;;;;;;;;;6266575;28;20296;-74
2023/05/08 02:37:35;;;;;;;2.63;2.33;;;;;;;;;;6235523;28;20264;-74
2023/05/08 02:40:44;;;;;;;2.33;2.13;;;;;;;;;;6236189;28;20293;-74
2023/05/08 02:43:50;;;;;;;2.37;2.17;;;;;;;;;;6251389;28;20292;-74
2023/05/08 02:46:59;;;;;;;5.33;2.30;;;;;;;;;;6251562;28;20583;-74
2023/05/08 02:50:07;;;;;;;3.47;2.13;;;;;;;;;;6237191;28;20293;-73
2023/05/08 02:53:18;;;;;;;2.03;2.03;;;;;;;;;;6229074;28;20292;-73
2023/05/08 02:56:31;;;;;;;2.40;2.33;;;;;;;;;;6194559;28;20297;-74
2023/05/08 02:59:40;;;;;;;2.23;2.03;;;;;;;;;;6194192;28;20590;-74
2023/05/08 03:02:51;;;;;;;2.30;2.10;;;;;;;;;;6222817;28;20305;-74
2023/05/08 03:05:57;;;;;;;3.15;2.25;;;;;;;;;;6223525;28;20564;-74
2023/05/08 03:09:04;;;;;;;2.40;2.20;;;;;;;;;;6217659;28;20292;-73
2023/05/08 03:12:15;;;;;;;3.72;2.47;;;;;;;;;;6195603;28;20294;-73
2023/05/08 03:15:24;;;;;;;3.33;2.13;;;;;;;;;;6185731;28;20302;-73
2023/05/08 03:18:35;;;;;;;2.27;2.17;;;;;;;;;;6213118;28;20294;-73
2023/05/08 03:21:42;;;;;;;3.13;2.70;;;;;;;;;;6228451;28;20532;-74
2023/05/08 03:24:49;;;;;;;6.43;2.63;;;;;;;;;;6217697;28;20315;-74
2023/05/08 03:27:55;;;;;;;6.93;2.70;;;;;;;;;;6214547;28;20303;-74
2023/05/08 03:31:01;;;;;;;4.33;2.37;;;;;;;;;;6232222;28;20297;-73
2023/05/08 03:34:07;;;;;;;2.90;2.70;;;;;;;;;;6225782;28;20301;-73
2023/05/08 03:37:13;;;;;;;2.60;2.50;;;;;;;;;;6248814;28;20579;-74
2023/05/08 03:40:20;;;;;;;2.30;2.20;;;;;;;;;;6250049;28;20296;-73
2023/05/08 03:43:26;;;;;;;4.63;2.63;;;;;;;;;;6216464;28;20292;-74
2023/05/08 03:46:32;;;;;;;5.33;2.50;;;;;;;;;;6250747;28;20268;-73
2023/05/08 03:49:39;;;;;;;3.10;2.10;;;;;;;;;;6234036;28;20592;-74
2023/05/08 03:52:44;;;;;;;10.07;2.50;;;;;;;;;;6234026;28;20268;-73
2023/05/08 03:55:50;;;;;;;6.00;2.57;;;;;;;;;;6235411;28;20305;-73
2023/05/08 03:59:03;;;;;;;6.23;2.70;;;;;;;;;;6229675;28;20296;-73
2023/05/08 04:02:16;;;;;;;12.00;2.97;;;;;;;;;;6233688;28;20316;-75
2023/05/08 04:05:26;;;;;;;7.10;2.90;;;;;;;;;;6225313;28;20294;-74
2023/05/08 04:08:35;;;;;;;5.20;2.83;;;;;;;;;;6225410;28;20289;-74
2023/05/08 04:11:48;;;;;;;2.73;2.60;;;;;;;;;;6193603;28;20309;-74
2023/05/08 04:14:56;;;;;;;6.00;2.53;;;;;;;;;;6192923;28;20288;-74
2023/05/08 04:18:06;;;;;;;5.13;2.57;;;;;;;;;;6192983;28;20294;-73
2023/05/08 04:21:12;;;;;;;4.80;2.73;;;;;;;;;;6185696;28;20290;-74
2023/05/08 04:24:18;;;;;;;5.60;2.87;;;;;;;;;;6201106;28;20301;-73
2023/05/08 04:27:25;;;;;;;2.80;2.40;;;;;;;;;;6206992;28;20296;-74
2023/05/08 04:30:31;;;;;;;6.38;3.63;;;;;;;;;;6180237;28;20305;-74
2023/05/08 04:33:37;;;;;;;8.27;3.40;;;;;;;;;;6214289;28;20310;-73
2023/05/08 04:36:43;;;;;;;5.60;3.00;;;;;;;;;;6208121;28;20292;-75
2023/05/08 04:39:51;;;;;;;8.18;2.78;;;;;;;;;;6195904;28;20470;-74
2023/05/08 04:42:59;;;;;;;7.35;3.00;;;;;;;;;;6222803;28;20306;-74
2023/05/08 04:46:05;;;;;;;7.17;3.20;;;;;;;;;;6189541;28;20338;-75
2023/05/08 04:49:11;;;;;;;9.15;3.40;;;;;;;;;;6190390;28;20293;-73
2023/05/08 04:52:16;;;;;;;6.47;2.67;;;;;;;;;;6192561;28;20301;-74
2023/05/08 04:55:22;;;;;;;4.47;2.80;;;;;;;;;;6239165;28;20296;-74
2023/05/08 04:58:28;;;;;;;4.28;2.72;;;;;;;;;;6220718;28;20296;-74
2023/05/08 05:01:35;;;;;;;7.10;2.60;;;;;;;;;;6254163;28;20350;-74
2023/05/08 05:04:40;;;;;;;4.32;2.83;;;;;;;;;;6253559;28;20305;-73
2023/05/08 05:07:46;;;;;;;5.53;2.53;;;;;;;;;;6237114;28;20300;-74
2023/05/08 05:10:51;;;;;;;4.82;2.38;;;;;;;;;;6230749;28;20297;-73
2023/05/08 05:13:58;;;;;;;6.10;2.25;;;;;;;;;;6228840;28;20297;-73
2023/05/08 05:17:05;;;;;;;6.38;2.85;;;;;;;;;;6214446;28;20455;-73
2023/05/08 05:20:13;;;;;;;6.63;2.70;;;;;;;;;;6196882;28;20285;-74
2023/05/08 05:23:19;;;;;;;2.80;2.50;;;;;;;;;;6229023;28;20289;-73
2023/05/08 05:26:24;;;;;;;5.40;2.10;;;;;;;;;;6214352;28;20285;-74
2023/05/08 05:29:31;;;;;;;4.45;2.38;;;;;;;;;;6196361;28;20293;-75
2023/05/08 05:32:36;;;;;;;8.13;2.67;;;;;;;;;;6195982;28;20580;-74
2023/05/08 05:35:43;;;;;;;2.30;2.10;;;;;;;;;;6196596;28;20308;-73
2023/05/08 05:38:48;;;;;;;3.30;2.50;;;;;;;;;;6212435;28;20293;-74
2023/05/08 05:41:53;;;;;;;3.75;2.53;;;;;;;;;;6213067;28;20301;-74
2023/05/08 05:45:01;;;;;;;2.50;2.17;;;;;;;;;;6213698;28;20297;-74
2023/05/08 05:48:08;;;;;;;6.90;2.10;;;;;;;;;;6228137;28;20601;-74
2023/05/08 05:51:13;;;;;;;3.13;2.42;;;;;;;;;;6196173;28;20297;-74
2023/05/08 05:54:18;;;;;;;4.00;2.45;;;;;;;;;;6213917;28;20297;-74
2023/05/08 05:57:23;;;;;;;3.25;2.38;;;;;;;;;;6236319;28;20289;-72
2023/05/08 06:00:30;;;;;;;8.82;2.65;;;;;;;;;;6219340;28;20297;-74
2023/05/08 06:03:37;;;;;;;3.05;2.35;;;;;;;;;;6228132;28;20297;-73
2023/05/08 06:06:43;;;;;;;2.97;1.92;;;;;;;;;;6237412;28;20597;-74
2023/05/08 06:09:50;;;;;;;6.55;2.60;;;;;;;;;;6219576;28;20449;-74
2023/05/08 06:12:55;;;;;;;3.80;2.72;;;;;;;;;;6236460;28;20292;-74
2023/05/08 06:16:03;;;;;;;5.80;2.17;;;;;;;;;;6236870;28;20309;-76
2023/05/08 06:19:08;;;;;;;5.00;2.17;;;;;;;;;;6235934;28;20297;-74
2023/05/08 06:22:13;;;;;;;3.78;2.22;;;;;;;;;;6236100;28;20304;-75
2023/05/08 06:25:19;;;;;;;5.38;2.40;;;;;;;;;;6236845;28;20293;-74
2023/05/08 06:28:24;;;;;;;4.65;2.28;;;;;;;;;;6230306;28;20298;-74
2023/05/08 06:31:31;;;;;;;4.32;2.63;;;;;;;;;;6236056;28;20517;-74
2023/05/08 06:34:36;;;;;;;9.32;2.40;;;;;;;;;;6212903;28;20300;-73
2023/05/08 06:37:41;;;;;;;5.15;2.67;;;;;;;;;;6213250;28;20273;-75
2023/05/08 06:40:48;;;;;;;3.15;2.50;;;;;;;;;;6213076;28;20453;-74
2023/05/08 06:43:54;;;;;;;6.28;2.10;;;;;;;;;;6212841;28;20297;-74
2023/05/08 06:47:00;;;;;;;4.97;2.30;;;;;;;;;;6213309;28;20313;-74
2023/05/08 06:50:06;;;;;;;5.15;2.42;;;;;;;;;;6212423;28;20288;-75
2023/05/08 06:53:12;;;;;;;4.22;2.83;;;;;;;;;;6218512;28;20281;-74
2023/05/08 06:56:17;;;;;;;4.95;2.40;;;;;;;;;;6235645;28;20597;-74
2023/05/08 06:59:23;;;;;;;10.07;3.08;;;;;;;;;;6218931;28;20288;-74
2023/05/08 07:02:29;;;;;;;2.95;2.72;;;;;;;;;;6237101;28;20299;-75
2023/05/08 07:05:35;;;;;;;5.35;2.33;;;;;;;;;;6236198;28;20292;-76
2023/05/08 07:08:40;;;;;;;8.70;2.88;;;;;;;;;;6236147;28;20604;-74
2023/05/08 07:11:46;;;;;;;12.48;2.40;;;;;;;;;;6225970;28;20294;-74
2023/05/08 07:14:52;;;;;;;16.02;3.38;;;;;;;;;;6211680;28;20301;-73
2023/05/08 07:18:01;;;;;;;13.63;3.00;;;;;;;;;;6211407;28;20293;-73
2023/05/08 07:21:06;;;;;;;5.40;2.13;;;;;;;;;;6211914;28;20301;-73
2023/05/08 07:24:14;;;;;;;13.50;4.15;;;;;;;;;;6210688;28;20316;-75
2023/05/08 07:27:19;;;;;;;2.42;2.22;;;;;;;;;;6211817;28;20300;-74
2023/05/08 07:30:25;;;;;;;6.22;2.55;;;;;;;;;;6194295;28;20297;-75
2023/05/08 07:33:32;;;;;;;2.47;2.20;;;;;;;;;;6210705;28;20301;-74
2023/05/08 07:36:39;;;;;;;10.88;2.88;;;;;;;;;;6211519;28;20333;-74
2023/05/08 07:39:44;;;;;;;5.15;2.47;;;;;;;;;;6210991;28;20317;-75
2023/05/08 07:42:49;;;;;;;14.15;2.92;;;;;;;;;;6211226;28;20305;-74
2023/05/08 07:45:54;;;;;;;12.15;2.58;;;;;;;;;;6211443;28;20297;-75
2023/05/08 07:49:01;;;;;;;6.25;2.25;;;;;;;;;;6210181;28;20585;-74
2023/05/08 07:52:06;;;;;;;2.30;2.20;;;;;;;;;;6210927;28;20296;-74
2023/05/08 07:55:12;;;;;;;7.25;2.45;;;;;;;;;;6232519;28;20296;-75
2023/05/08 07:58:17;;;;;;;4.55;2.40;;;;;;;;;;6234740;28;20296;-74
2023/05/08 08:01:23;;;;;;;2.20;2.00;;;;;;;;;;6238681;28;20292;-74
2023/05/08 08:04:29;;;;;;;2.65;2.45;;;;;;;;;;6229605;28;20311;-74
2023/05/08 08:07:34;;;;;;;5.25;2.50;;;;;;;;;;6240028;28;20268;-74
2023/05/08 08:10:40;;;;;;;5.15;2.60;;;;;;;;;;6240418;28;20261;-74
2023/05/08 08:13:45;;;;;;;6.32;2.80;;;;;;;;;;6238116;28;20581;-74
2023/05/08 08:16:51;;;;;;;5.60;2.58;;;;;;;;;;6222507;28;20288;-74
2023/05/08 08:19:57;;;;;;;4.03;2.67;;;;;;;;;;6239596;28;20296;-75
2023/05/08 08:23:03;;;;;;;6.35;2.67;;;;;;;;;;6239081;28;20304;-74
2023/05/08 08:26:10;;;;;;;12.98;3.50;;;;;;;;;;6239767;28;20284;-75
2023/05/08 08:29:15;;;;;;;6.72;2.30;;;;;;;;;;6238822;28;20292;-75
2023/05/08 08:32:20;;;;;;;3.58;2.20;;;;;;;;;;6239601;28;20280;-75
2023/05/08 08:35:28;;;;;;;9.95;2.35;;;;;;;;;;6238240;28;20296;-75
2023/05/08 08:38:33;;;;;;;6.05;2.70;;;;;;;;;;6221524;28;20461;-74
2023/05/08 08:41:39;;;;;;;3.80;2.28;;;;;;;;;;6239075;28;20307;-73
2023/05/08 08:44:44;;;;;;;5.45;2.50;;;;;;;;;;6237340;28;20292;-75
2023/05/08 08:47:52;;;;;;;9.98;2.15;;;;;;;;;;6238650;28;20308;-74
2023/05/08 08:51:00;;;;;;;6.03;2.20;;;;;;;;;;6239348;28;20308;-75
2023/05/08 08:54:09;;;;;;;13.88;2.40;;;;;;;;;;6238265;28;20301;-75
2023/05/08 08:57:15;;;;;;;7.38;2.42;;;;;;;;;;6239421;28;20292;-75
2023/05/08 09:00:22;;;;;;;7.10;2.35;;;;;;;;;;6238893;28;20304;-74
2023/05/08 09:03:28;;;;;;;7.88;2.60;;;;;;;;;;6238241;28;20292;-76
2023/05/08 09:06:37;;;;;;;11.60;2.38;;;;;;;;;;6239219;28;20379;-74
2023/05/08 09:09:44;;;;;;;17.30;2.67;;;;;;;;;;6238459;28;20312;-74
2023/05/08 09:12:49;;;;;;;9.75;2.92;;;;;;;;;;6237409;28;20284;-76
2023/05/08 09:15:54;;;;;;;8.15;2.20;;;;;;;;;;6238871;28;20410;-76
2023/05/08 09:19:00;;;;;;;4.35;2.40;;;;;;;;;;6221598;28;20296;-73
2023/05/08 09:22:09;;;;;;;3.72;2.35;;;;;;;;;;6238661;28;20463;-74
2023/05/08 09:25:14;;;;;;;5.45;2.38;;;;;;;;;;6238407;28;20292;-75
2023/05/08 09:28:22;;;;;;;10.02;2.17;;;;;;;;;;6237945;28;20294;-75
2023/05/08 09:31:35;;;;;;;2.25;2.13;;;;;;;;;;6221414;28;20265;-76
2023/05/08 09:34:40;;;;;;;9.32;2.35;;;;;;;;;;6215970;28;20333;-73
2023/05/08 09:37:48;;;;;;;10.15;2.42;;;;;;;;;;6215693;28;20293;-73
2023/05/08 09:41:07;;;;;;;4.85;1.95;;;;;;;;;;6216302;28;20296;-74
2023/05/08 09:44:14;;;;;;;2.92;2.63;;;;;;;;;;6215248;28;20306;-72
2023/05/08 09:47:21;;;;;;;13.65;2.92;;;;;;;;;;6215269;28;20297;-73
2023/05/08 09:50:27;;;;;;;5.70;1.80;;;;;;;;;;6212637;28;20293;-75
2023/05/08 09:53:33;;;;;;;3.60;2.20;;;;;;;;;;6221448;28;20288;-75
2023/05/08 09:56:40;;;;;;;7.10;1.95;;;;;;;;;;6237464;28;20300;-75
2023/05/08 09:59:45;;;;;;;8.43;2.72;;;;;;;;;;6236885;28;20292;-75
2023/05/08 10:02:57;;;;;;;7.93;2.45;;;;;;;;;;6237040;28;20300;-76
2023/05/08 10:06:13;;;;;;;10.18;2.35;;;;;;;;;;6237260;28;20316;-74
2023/05/08 10:09:20;;;;;;;4.82;2.70;;;;;;;;;;6236724;28;20296;-74
2023/05/08 10:12:25;;;;;;;4.05;2.40;;;;;;;;;;6221340;28;20292;-74
2023/05/08 10:15:31;;;;;;;2.33;2.17;;;;;;;;;;6212360;28;20301;-75
2023/05/08 10:18:38;;;;;;;4.72;2.53;;;;;;;;;;6212263;28;20292;-75
2023/05/08 10:21:46;;;;;;;9.10;2.35;;;;;;;;;;6212771;28;20305;-74
2023/05/08 10:24:54;;;;;;;4.97;2.40;;;;;;;;;;6211842;28;20296;-74
2023/05/08 10:28:07;;;;;;;2.47;2.25;;;;;;;;;;6211965;28;20293;-74
2023/05/08 10:31:15;;;;;;;17.42;2.58;;;;;;;;;;6211542;28;20292;-75
2023/05/08 10:34:23;;;;;;;8.98;2.65;;;;;;;;;;6194463;28;20624;-75
2023/05/08 10:37:30;;;;;;;13.82;2.33;;;;;;;;;;6236004;28;20559;-75
2023/05/08 10:40:38;;;;;;;4.10;2.20;;;;;;;;;;6211151;28;20278;-75
2023/05/08 10:43:44;;;;;;;7.68;2.15;;;;;;;;;;6211493;28;20305;-76
2023/05/08 10:46:53;;;;;;;6.82;2.20;;;;;;;;;;6212195;28;20564;-75
2023/05/08 10:50:02;;;;;;;11.40;2.55;;;;;;;;;;6211689;28;20293;-77
2023/05/08 10:53:10;;;;;;;4.97;2.28;;;;;;;;;;6216858;28;20292;-74
2023/05/08 10:56:17;;;;;;;2.50;2.10;;;;;;;;;;6237233;28;20300;-74
2023/05/08 10:59:22;;;;;;;11.45;2.83;;;;;;;;;;6237167;28;20284;-74
2023/05/08 11:02:29;;;;;;;14.25;2.22;;;;;;;;;;6236127;28;20292;-75
2023/05/08 11:05:46;;;;;;;12.80;2.90;;;;;;;;;;6225789;28;20613;-74
2023/05/08 11:08:53;;;;;;;25.33;2.67;;;;;;;;;;6211317;28;20297;-75
2023/05/08 11:12:21;;;;;;;6.65;2.13;;;;;;;;;;6211669;28;20293;-75
2023/05/08 11:15:37;;;;;;;2.90;1.83;;;;;;;;;;6204280;28;20332;-75
2023/05/08 11:19:20;;;;;;;3.80;2.00;;;;;;;;;;6193521;28;20344;-74
2023/05/08 11:22:27;;;;;;;5.13;2.13;;;;;;;;;;6173267;28;20273;-75
2023/05/08 11:25:43;;;;;;;7.82;2.30;;;;;;;;;;6211300;28;20319;-75
2023/05/08 11:28:58;;;;;;;12.90;2.88;;;;;;;;;;6211204;28;20302;-74
2023/05/08 11:32:03;;;;;;;7.07;2.20;;;;;;;;;;6211718;28;20289;-73
2023/05/08 11:35:10;;;;;;;12.88;2.35;;;;;;;;;;6212239;28;20293;-75
2023/05/08 11:38:34;;;;;;;9.95;2.47;;;;;;;;;;6215846;28;20292;-75
2023/05/08 11:41:40;;;;;;;6.78;2.55;;;;;;;;;;6216171;28;20297;-75
2023/05/08 11:44:47;;;;;;;15.23;2.53;;;;;;;;;;6215987;28;20309;-75
2023/05/08 11:48:01;;;;;;;35.03;3.78;;;;;;;;;;6215976;28;20585;-74
2023/05/08 11:51:07;;;;;;;14.85;3.13;;;;;;;;;;6216630;28;20605;-75
2023/05/08 11:54:14;;;;;;;9.52;2.47;;;;;;;;;;6215918;28;20300;-75
2023/05/08 11:57:19;;;;;;;12.60;3.03;;;;;;;;;;6216070;28;20292;-74
2023/05/08 12:00:26;;;;;;;4.90;2.10;;;;;;;;;;6215581;28;20297;-74
2023/05/08 12:03:31;;;;;;;12.88;2.72;;;;;;;;;;6216375;28;20599;-74
2023/05/08 12:06:38;;;;;;;9.93;2.80;;;;;;;;;;6240087;28;20301;-74
2023/05/08 12:09:43;;;;;;;13.38;2.67;;;;;;;;;;6239661;28;20425;-74
2023/05/08 12:12:48;;;;;;;8.30;2.20;;;;;;;;;;6239561;28;20360;-75
2023/05/08 12:15:57;;;;;;;12.38;2.60;;;;;;;;;;6240019;28;20296;-74
2023/05/08 12:19:03;;;;;;;9.43;2.50;;;;;;;;;;6227208;28;20301;-74
2023/05/08 12:22:09;;;;;;;4.85;2.15;;;;;;;;;;6237343;28;20297;-75
2023/05/08 12:25:16;;;;;;;10.10;2.05;;;;;;;;;;6239222;28;20308;-73
2023/05/08 12:28:21;;;;;;;7.85;2.05;;;;;;;;;;6239478;28;20296;-74
2023/05/08 12:31:28;;;;;;;5.68;2.00;;;;;;;;;;6239008;28;20273;-75
2023/05/08 12:34:34;;;;;;;6.00;2.03;;;;;;;;;;6221516;28;20292;-74
2023/05/08 12:37:39;;;;;;;15.60;2.65;;;;;;;;;;6239182;28;20272;-74
2023/05/08 12:40:47;;;;;;;8.05;2.25;;;;;;;;;;6239592;28;20268;-75
2023/05/08 12:43:53;;;;;;;8.13;2.25;;;;;;;;;;6221396;28;20292;-76
2023/05/08 12:46:59;;;;;;;5.78;2.15;;;;;;;;;;6239281;28;20300;-74
2023/05/08 12:50:06;;;;;;;5.60;2.08;;;;;;;;;;6237831;28;20605;-74
2023/05/08 12:53:14;;;;;;;9.80;2.20;;;;;;;;;;6238644;28;20612;-74
2023/05/08 12:56:23;;;;;;;4.25;2.42;;;;;;;;;;6238998;28;20284;-75
2023/05/08 12:59:32;;;;;;;9.15;2.40;;;;;;;;;;6238634;28;20281;-73
2023/05/08 13:02:39;;;;;;;9.57;2.30;;;;;;;;;;6238685;28;20394;-75
2023/05/08 13:05:55;;;;;;;5.45;2.22;;;;;;;;;;6238483;28;20289;-74
2023/05/08 13:09:00;;;;;;;5.90;2.10;;;;;;;;;;6239043;28;20296;-75
2023/05/08 13:12:06;;;;;;;7.07;2.50;;;;;;;;;;6238736;28;20299;-73
2023/05/08 13:15:11;;;;;;;5.75;2.35;;;;;;;;;;6238905;28;20493;-75
2023/05/08 13:18:19;;;;;;;7.25;2.20;;;;;;;;;;6238039;28;20292;-74
2023/05/08 13:21:24;;;;;;;127.90;6.13;;;;;;;;;;6238312;28;20296;-76
2023/05/08 13:24:31;;;;;;;9.48;2.20;;;;;;;;;;6237457;28;20292;-75
2023/05/08 13:27:37;;;;;;;11.15;2.15;;;;;;;;;;6237221;28;20300;-75
2023/05/08 13:30:42;;;;;;;13.38;2.30;;;;;;;;;;6238129;28;20296;-74
2023/05/08 13:33:49;;;;;;;8.02;2.10;;;;;;;;;;6237259;28;20308;-74
2023/05/08 13:36:54;;;;;;;5.40;1.95;;;;;;;;;;6238026;28;20580;-73
2023/05/08 13:39:59;;;;;;;5.57;1.90;;;;;;;;;;6237195;28;20300;-75
2023/05/08 13:43:04;;;;;;;7.82;2.22;;;;;;;;;;6237309;28;20537;-74
2023/05/08 13:46:10;;;;;;;7.40;1.90;;;;;;;;;;6237741;28;20296;-74
2023/05/08 13:49:18;;;;;;;3.20;1.67;;;;;;;;;;6219979;28;20308;-75
2023/05/08 13:52:23;;;;;;;10.57;2.20;;;;;;;;;;6238062;28;20340;-73
2023/05/08 13:55:29;;;;;;;8.60;2.10;;;;;;;;;;6235637;28;20327;-75
2023/05/08 13:58:34;;;;;;;9.27;2.75;;;;;;;;;;6236545;28;20300;-75
2023/05/08 14:01:39;;;;;;;10.13;1.90;;;;;;;;;;6236777;28;20542;-75
2023/05/08 14:04:45;;;;;;;12.40;2.00;;;;;;;;;;6236648;28;20304;-74
2023/05/08 14:07:51;;;;;;;8.73;1.88;;;;;;;;;;6236735;28;20292;-74
2023/05/08 14:10:56;;;;;;;3.30;1.60;;;;;;;;;;6237416;28;20561;-74
2023/05/08 14:14:01;;;;;;;4.88;1.98;;;;;;;;;;6236857;28;20288;-75
2023/05/08 14:17:06;;;;;;;18.73;1.92;;;;;;;;;;6237149;28;20568;-75
2023/05/08 14:20:15;;;;;;;4.97;1.75;;;;;;;;;;6236467;28;20285;-74
2023/05/08 14:23:20;;;;;;;15.75;2.78;;;;;;;;;;6236431;28;20292;-74
2023/05/08 14:26:25;;;;;;;10.70;2.50;;;;;;;;;;6236879;28;20288;-74
2023/05/08 14:29:31;;;;;;;12.80;2.10;;;;;;;;;;6236669;28;20296;-76
2023/05/08 14:32:36;;;;;;;7.38;1.88;;;;;;;;;;6218575;28;20495;-75
2023/05/08 14:35:43;;;;;;;17.90;2.13;;;;;;;;;;6236562;28;20312;-74
2023/05/08 14:38:48;;;;;;;7.63;1.88;;;;;;;;;;6218962;28;20288;-74
2023/05/08 14:41:53;;;;;;;9.15;2.00;;;;;;;;;;6236494;28;20463;-74
2023/05/08 14:45:18;;;;;;;9.93;2.00;;;;;;;;;;6235772;28;20304;-74
2023/05/08 14:48:24;;;;;;;9.90;2.47;;;;;;;;;;6235934;28;20288;-74
2023/05/08 14:51:30;;;;;;;5.88;1.73;;;;;;;;;;6236481;28;20552;-74
2023/05/08 14:54:37;;;;;;;7.00;2.30;;;;;;;;;;6235700;28;20304;-74
2023/05/08 14:57:42;;;;;;;14.00;1.83;;;;;;;;;;6235807;28;20301;-74
2023/05/08 15:00:48;;;;;;;10.48;2.10;;;;;;;;;;6236272;28;20300;-76
2023/05/08 15:03:53;;;;;;;12.23;2.60;;;;;;;;;;6235688;28;20328;-76
2023/05/08 15:06:59;;;;;;;11.68;1.90;;;;;;;;;;6236017;28;20295;-75
2023/05/08 15:10:05;;;;;;;5.05;1.60;;;;;;;;;;6235666;28;20328;-74
2023/05/08 15:13:11;;;;;;;7.22;1.70;;;;;;;;;;6236185;28;20296;-74
2023/05/08 15:16:16;;;;;;;5.90;1.73;;;;;;;;;;6236411;28;20471;-75
2023/05/08 15:19:23;;;;;;;9.35;1.80;;;;;;;;;;6236171;28;20357;-75
2023/05/08 15:22:29;;;;;;;1.63;1.52;;;;;;;;;;6235186;28;20272;-76
2023/05/08 15:25:34;;;;;;;10.98;1.58;;;;;;;;;;6233781;28;20578;-73
2023/05/08 15:28:40;;;;;;;5.78;1.42;;;;;;;;;;6210402;28;20296;-74
2023/05/08 15:31:45;;;;;;;4.82;1.42;;;;;;;;;;6210211;28;20470;-74
2023/05/08 15:34:50;;;;;;;3.65;2.08;;;;;;;;;;6210533;28;20294;-75
2023/05/08 15:37:57;;;;;;;3.10;2.30;;;;;;;;;;6210463;28;20569;-75
2023/05/08 15:41:02;;;;;;;5.95;2.15;;;;;;;;;;6211232;28;20301;-74
2023/05/08 15:44:07;;;;;;;15.82;2.00;;;;;;;;;;6210592;28;20302;-75
2023/05/08 15:47:12;;;;;;;2.25;1.70;;;;;;;;;;6211064;28;20293;-75
2023/05/08 15:50:17;;;;;;;5.97;1.80;;;;;;;;;;6210485;28;20306;-74
2023/05/08 15:53:24;;;;;;;5.50;1.75;;;;;;;;;;6218702;28;20292;-74
2023/05/08 15:56:30;;;;;;;46.00;3.35;;;;;;;;;;6217805;28;20292;-74
2023/05/08 15:59:36;;;;;;;7.15;1.95;;;;;;;;;;6234787;28;20284;-74
2023/05/08 16:02:41;;;;;;;2.00;1.60;;;;;;;;;;6234523;28;20297;-74
2023/05/08 16:05:46;;;;;;;5.30;1.65;;;;;;;;;;6235730;28;20304;-75
2023/05/08 16:08:53;;;;;;;14.10;1.85;;;;;;;;;;6234806;28;20332;-74
2023/05/08 16:11:58;;;;;;;2.95;1.48;;;;;;;;;;6235019;28;20437;-74
2023/05/08 16:15:04;;;;;;;9.38;1.90;;;;;;;;;;6235000;28;20321;-74
2023/05/08 16:18:12;;;;;;;4.47;1.60;;;;;;;;;;6233623;28;20289;-73
2023/05/08 16:21:17;;;;;;;9.32;1.67;;;;;;;;;;6234272;28;20304;-74
2023/05/08 16:24:24;;;;;;;1.83;1.30;;;;;;;;;;6199327;28;20300;-75
2023/05/08 16:27:33;;;;;;;6.55;1.77;;;;;;;;;;6197605;28;20301;-73
2023/05/08 16:30:40;;;;;;;11.55;1.80;;;;;;;;;;6213783;28;20285;-75
2023/05/08 16:33:46;;;;;;;8.57;2.03;;;;;;;;;;6203512;28;20329;-75
2023/05/08 16:36:51;;;;;;;5.55;1.70;;;;;;;;;;6200243;28;20301;-74
2023/05/08 16:39:57;;;;;;;4.63;2.13;;;;;;;;;;6190397;28;20301;-75
2023/05/08 16:43:03;;;;;;;16.08;2.00;;;;;;;;;;6188869;28;20301;-74
2023/05/08 16:46:09;;;;;;;7.38;2.22;;;;;;;;;;6190891;28;20293;-74
2023/05/08 16:49:15;;;;;;;6.40;1.60;;;;;;;;;;6190390;28;20507;-74
2023/05/08 16:52:20;;;;;;;16.13;2.10;;;;;;;;;;6193346;28;20298;-73
2023/05/08 16:55:27;;;;;;;14.25;1.67;;;;;;;;;;6219264;28;20309;-74
2023/05/08 16:58:33;;;;;;;13.00;1.92;;;;;;;;;;6238502;28;20353;-73
2023/05/08 17:01:38;;;;;;;3.28;1.70;;;;;;;;;;6238994;28;20268;-74
2023/05/08 17:04:45;;;;;;;2.55;1.40;;;;;;;;;;6245574;28;20309;-74
2023/05/08 17:07:50;;;;;;;3.13;1.30;;;;;;;;;;6215541;28;20293;-76
2023/05/08 17:10:57;;;;;;;4.85;1.73;;;;;;;;;;6215046;28;20547;-75
2023/05/08 17:14:02;;;;;;;2.40;1.30;;;;;;;;;;6214081;28;20290;-73
2023/05/08 17:17:07;;;;;;;5.07;1.85;;;;;;;;;;6229485;28;20285;-75
2023/05/08 17:20:14;;;;;;;5.63;1.92;;;;;;;;;;6213519;28;20293;-75
2023/05/08 17:23:19;;;;;;;13.45;2.10;;;;;;;;;;6213950;28;20515;-76
2023/05/08 17:26:26;;;;;;;10.57;1.88;;;;;;;;;;6215186;28;20292;-75
2023/05/08 17:29:31;;;;;;;1.88;1.50;;;;;;;;;;6213516;28;20296;-74
2023/05/08 17:32:37;;;;;;;2.75;1.40;;;;;;;;;;6212674;28;20593;-74
2023/05/08 17:35:45;;;;;;;6.18;2.42;;;;;;;;;;6213148;28;20653;-75
2023/05/08 17:38:50;;;;;;;6.60;1.60;;;;;;;;;;6211896;28;20308;-74
2023/05/08 17:41:57;;;;;;;5.53;1.30;;;;;;;;;;6212921;28;20297;-74
2023/05/08 17:45:03;;;;;;;3.50;1.30;;;;;;;;;;6213485;28;20301;-75
2023/05/08 17:48:11;;;;;;;2.58;1.67;;;;;;;;;;6213652;28;20365;-73
2023/05/08 17:51:17;;;;;;;2.00;1.40;;;;;;;;;;6206474;28;20293;-75
2023/05/08 17:54:22;;;;;;;1.55;1.42;;;;;;;;;;6212643;28;20305;-74
2023/05/08 17:57:28;;;;;;;1.75;1.40;;;;;;;;;;6213618;28;20472;-73
2023/05/08 18:00:36;;;;;;;2.22;1.30;;;;;;;;;;6206291;28;20305;-74
2023/05/08 18:03:43;;;;;;;1.83;1.70;;;;;;;;;;6208875;28;20300;-78
2023/05/08 18:06:51;;;;;;;2.90;1.50;;;;;;;;;;6233847;28;20292;-75
2023/05/08 18:09:59;;;;;;;1.98;1.60;;;;;;;;;;6235262;28;20304;-75
2023/05/08 18:13:08;;;;;;;8.10;1.70;;;;;;;;;;6237229;28;20585;-76
2023/05/08 18:16:15;;;;;;;8.23;2.03;;;;;;;;;;6237555;28;20292;-75
2023/05/08 18:19:24;;;;;;;3.35;1.70;;;;;;;;;;6236343;28;20305;-73
2023/05/08 18:22:29;;;;;;;4.00;1.92;;;;;;;;;;6236368;28;20265;-76
2023/05/08 18:25:36;;;;;;;2.33;1.80;;;;;;;;;;6236838;28;20300;-77
2023/05/08 18:28:42;;;;;;;3.05;1.80;;;;;;;;;;6237019;28;20296;-75
2023/05/08 18:31:48;;;;;;;37.88;3.85;;;;;;;;;;6237321;28;20288;-76
2023/05/08 18:34:53;;;;;;;5.55;1.90;;;;;;;;;;6236793;28;20471;-75
2023/05/08 18:37:59;;;;;;;1.90;1.80;;;;;;;;;;6237341;28;20292;-77